sensor_id;sensor_type;location;lat;lon;timestamp;pressure;altitude;pressure_sealevel;temperature;humidity
67803;BME280;72185;51.378;-1.342;2024-02-16T00:01:49;99300.22;;;19.00;38.14
67803;BME280;72185;51.378;-1.342;2024-02-16T00:04:14;99294.38;;;18.99;38.39
67803;BME280;72185;51.378;-1.342;2024-02-16T00:06:40;99294.05;;;19.26;38.28
67803;BME280;72185;51.378;-1.342;2024-02-16T00:09:06;99296.66;;;19.12;38.16
67803;BME280;72185;51.378;-1.342;2024-02-16T00:11:31;99301.61;;;19.10;38.19
67803;BME280;72185;51.378;-1.342;2024-02-16T00:13:56;99291.17;;;19.02;38.23
67803;BME280;72185;51.378;-1.342;2024-02-16T00:16:22;99286.34;;;18.93;38.05
67803;BME280;72185;51.378;-1.342;2024-02-16T00:18:48;99294.86;;;18.79;38.09
67803;BME280;72185;51.378;-1.342;2024-02-16T00:21:13;99303.42;;;19.12;38.09
67803;BME280;72185;51.378;-1.342;2024-02-16T00:23:39;99308.67;;;18.66;38.29
67803;BME280;72185;51.378;-1.342;2024-02-16T00:26:04;99311.13;;;19.07;37.92
67803;BME280;72185;51.378;-1.342;2024-02-16T00:28:29;99316.70;;;18.96;38.21
67803;BME280;72185;51.378;-1.342;2024-02-16T00:30:55;99324.15;;;19.21;38.16
67803;BME280;72185;51.378;-1.342;2024-02-16T00:33:21;99327.76;;;19.24;38.07
67803;BME280;72185;51.378;-1.342;2024-02-16T00:35:46;99328.87;;;19.26;37.98
67803;BME280;72185;51.378;-1.342;2024-02-16T00:38:12;99325.50;;;18.96;38.14
67803;BME280;72185;51.378;-1.342;2024-02-16T00:40:37;99327.43;;;19.10;37.96
67803;BME280;72185;51.378;-1.342;2024-02-16T00:43:03;99330.46;;;18.98;38.16
67803;BME280;72185;51.378;-1.342;2024-02-16T00:45:28;99334.13;;;19.21;37.91
67803;BME280;72185;51.378;-1.342;2024-02-16T00:47:54;99327.96;;;19.26;37.85
67803;BME280;72185;51.378;-1.342;2024-02-16T00:50:19;99328.87;;;19.04;37.99
67803;BME280;72185;51.378;-1.342;2024-02-16T00:52:45;99327.08;;;19.17;38.08
67803;BME280;72185;51.378;-1.342;2024-02-16T00:55:11;99325.88;;;18.65;37.96
67803;BME280;72185;51.378;-1.342;2024-02-16T00:57:36;99323.78;;;19.19;38.03
67803;BME280;72185;51.378;-1.342;2024-02-16T01:00:02;99319.85;;;19.24;37.97
67803;BME280;72185;51.378;-1.342;2024-02-16T01:02:27;99324.29;;;18.53;38.25
67803;BME280;72185;51.378;-1.342;2024-02-16T01:04:53;99330.10;;;18.94;38.11
67803;BME280;72185;51.378;-1.342;2024-02-16T01:07:18;99332.47;;;19.04;37.82
67803;BME280;72185;51.378;-1.342;2024-02-16T01:09:44;99329.48;;;18.96;37.96
67803;BME280;72185;51.378;-1.342;2024-02-16T01:12:09;99329.75;;;19.20;37.86
67803;BME280;72185;51.378;-1.342;2024-02-16T01:14:34;99338.67;;;19.29;37.86
67803;BME280;72185;51.378;-1.342;2024-02-16T01:16:59;99337.53;;;18.73;37.91
67803;BME280;72185;51.378;-1.342;2024-02-16T01:19:25;99326.98;;;19.28;37.81
67803;BME280;72185;51.378;-1.342;2024-02-16T01:21:51;99334.86;;;19.15;38.02
67803;BME280;72185;51.378;-1.342;2024-02-16T01:24:16;99354.62;;;18.96;37.95
67803;BME280;72185;51.378;-1.342;2024-02-16T01:26:42;99365.71;;;19.16;38.00
67803;BME280;72185;51.378;-1.342;2024-02-16T01:29:07;99364.97;;;18.67;37.88
67803;BME280;72185;51.378;-1.342;2024-02-16T01:31:33;99355.53;;;19.20;37.89
67803;BME280;72185;51.378;-1.342;2024-02-16T01:33:58;99349.98;;;19.13;37.95
67803;BME280;72185;51.378;-1.342;2024-02-16T01:36:24;99355.40;;;18.91;37.86
67803;BME280;72185;51.378;-1.342;2024-02-16T01:38:49;99355.07;;;19.15;37.91
67803;BME280;72185;51.378;-1.342;2024-02-16T01:41:15;99355.52;;;19.05;37.96
67803;BME280;72185;51.378;-1.342;2024-02-16T01:43:40;99357.75;;;19.14;37.91
67803;BME280;72185;51.378;-1.342;2024-02-16T01:46:06;99357.46;;;18.81;37.95
67803;BME280;72185;51.378;-1.342;2024-02-16T01:48:32;99359.31;;;19.19;37.76
67803;BME280;72185;51.378;-1.342;2024-02-16T01:50:57;99360.75;;;18.77;38.02
67803;BME280;72185;51.378;-1.342;2024-02-16T01:53:23;99360.62;;;19.11;37.79
67803;BME280;72185;51.378;-1.342;2024-02-16T01:55:49;99369.14;;;18.93;37.70
67803;BME280;72185;51.378;-1.342;2024-02-16T01:58:14;99370.73;;;19.07;37.88
67803;BME280;72185;51.378;-1.342;2024-02-16T02:00:39;99370.26;;;19.12;37.68
67803;BME280;72185;51.378;-1.342;2024-02-16T02:03:05;99378.41;;;18.69;37.64
67803;BME280;72185;51.378;-1.342;2024-02-16T02:05:32;99379.40;;;18.82;37.78
67803;BME280;72185;51.378;-1.342;2024-02-16T02:07:56;99382.01;;;18.96;38.03
67803;BME280;72185;51.378;-1.342;2024-02-16T02:10:21;99385.68;;;19.01;37.85
67803;BME280;72185;51.378;-1.342;2024-02-16T02:12:47;99388.78;;;18.86;37.77
67803;BME280;72185;51.378;-1.342;2024-02-16T02:15:13;99391.92;;;18.99;37.90
67803;BME280;72185;51.378;-1.342;2024-02-16T02:17:38;99395.10;;;19.09;37.71
67803;BME280;72185;51.378;-1.342;2024-02-16T02:20:04;99400.49;;;19.01;37.74
67803;BME280;72185;51.378;-1.342;2024-02-16T02:22:29;99400.55;;;18.63;37.68
67803;BME280;72185;51.378;-1.342;2024-02-16T02:24:54;99403.77;;;18.81;37.71
67803;BME280;72185;51.378;-1.342;2024-02-16T02:27:20;99399.24;;;18.99;37.82
67803;BME280;72185;51.378;-1.342;2024-02-16T02:29:45;99392.33;;;18.99;37.72
67803;BME280;72185;51.378;-1.342;2024-02-16T02:32:11;99396.21;;;19.04;37.74
67803;BME280;72185;51.378;-1.342;2024-02-16T02:34:37;99404.53;;;18.99;37.73
67803;BME280;72185;51.378;-1.342;2024-02-16T02:37:02;99404.12;;;18.77;37.74
67803;BME280;72185;51.378;-1.342;2024-02-16T02:39:28;99408.37;;;18.72;37.78
67803;BME280;72185;51.378;-1.342;2024-02-16T02:41:53;99412.00;;;18.96;37.82
67803;BME280;72185;51.378;-1.342;2024-02-16T02:44:19;99410.01;;;18.85;37.88
67803;BME280;72185;51.378;-1.342;2024-02-16T02:46:44;99417.53;;;18.78;37.65
67803;BME280;72185;51.378;-1.342;2024-02-16T02:49:10;99432.74;;;18.92;37.71
67803;BME280;72185;51.378;-1.342;2024-02-16T02:51:35;99448.27;;;19.01;37.66
67803;BME280;72185;51.378;-1.342;2024-02-16T02:54:01;99456.21;;;19.01;37.68
67803;BME280;72185;51.378;-1.342;2024-02-16T02:56:27;99462.90;;;18.92;37.71
67803;BME280;72185;51.378;-1.342;2024-02-16T02:58:52;99469.75;;;18.76;37.60
67803;BME280;72185;51.378;-1.342;2024-02-16T03:01:18;99482.86;;;18.44;37.72
67803;BME280;72185;51.378;-1.342;2024-02-16T03:03:43;99497.62;;;18.87;37.62
67803;BME280;72185;51.378;-1.342;2024-02-16T03:06:09;99496.43;;;18.82;37.68
67803;BME280;72185;51.378;-1.342;2024-02-16T03:08:35;99501.93;;;18.87;37.78
67803;BME280;72185;51.378;-1.342;2024-02-16T03:11:00;99503.39;;;18.89;37.66
67803;BME280;72185;51.378;-1.342;2024-02-16T03:13:25;99501.89;;;18.48;37.75
67803;BME280;72185;51.378;-1.342;2024-02-16T03:15:51;99493.40;;;18.56;37.91
67803;BME280;72185;51.378;-1.342;2024-02-16T03:18:16;99492.72;;;18.95;37.73
67803;BME280;72185;51.378;-1.342;2024-02-16T03:20:42;99491.88;;;18.43;38.00
67803;BME280;72185;51.378;-1.342;2024-02-16T03:23:07;99494.39;;;18.59;37.76
67803;BME280;72185;51.378;-1.342;2024-02-16T03:25:33;99490.49;;;18.33;38.21
67803;BME280;72185;51.378;-1.342;2024-02-16T03:27:59;99492.52;;;18.72;37.75
67803;BME280;72185;51.378;-1.342;2024-02-16T03:30:24;99495.17;;;18.63;37.81
67803;BME280;72185;51.378;-1.342;2024-02-16T03:32:50;99502.68;;;18.59;37.95
67803;BME280;72185;51.378;-1.342;2024-02-16T03:35:15;99507.60;;;18.58;37.96
67803;BME280;72185;51.378;-1.342;2024-02-16T03:37:41;99515.02;;;18.65;37.76
67803;BME280;72185;51.378;-1.342;2024-02-16T03:40:08;99518.21;;;18.58;37.59
67803;BME280;72185;51.378;-1.342;2024-02-16T03:42:32;99517.98;;;18.62;37.42
67803;BME280;72185;51.378;-1.342;2024-02-16T03:44:57;99518.65;;;18.60;37.75
67803;BME280;72185;51.378;-1.342;2024-02-16T03:47:23;99520.62;;;18.69;37.77
67803;BME280;72185;51.378;-1.342;2024-02-16T03:49:48;99521.20;;;18.30;37.81
67803;BME280;72185;51.378;-1.342;2024-02-16T03:52:14;99509.58;;;18.46;37.96
67803;BME280;72185;51.378;-1.342;2024-02-16T03:54:39;99505.69;;;18.52;37.91
67803;BME280;72185;51.378;-1.342;2024-02-16T03:57:05;99516.89;;;18.47;37.87
67803;BME280;72185;51.378;-1.342;2024-02-16T03:59:30;99525.84;;;18.52;37.84
67803;BME280;72185;51.378;-1.342;2024-02-16T04:01:56;99531.83;;;18.64;37.87
67803;BME280;72185;51.378;-1.342;2024-02-16T04:04:21;99525.69;;;18.14;38.06
67803;BME280;72185;51.378;-1.342;2024-02-16T04:06:47;99521.97;;;18.49;37.79
67803;BME280;72185;51.378;-1.342;2024-02-16T04:09:13;99525.86;;;18.38;38.02
67803;BME280;72185;51.378;-1.342;2024-02-16T04:11:38;99534.83;;;18.63;37.66
67803;BME280;72185;51.378;-1.342;2024-02-16T04:14:04;99545.93;;;18.46;38.01
67803;BME280;72185;51.378;-1.342;2024-02-16T04:16:29;99545.29;;;18.43;37.80
67803;BME280;72185;51.378;-1.342;2024-02-16T04:18:54;99542.09;;;18.52;37.86
67803;BME280;72185;51.378;-1.342;2024-02-16T04:21:20;99547.00;;;18.48;37.75
67803;BME280;72185;51.378;-1.342;2024-02-16T04:23:46;99552.53;;;18.47;37.75
67803;BME280;72185;51.378;-1.342;2024-02-16T04:26:11;99556.70;;;18.46;37.95
67803;BME280;72185;51.378;-1.342;2024-02-16T04:28:37;99566.56;;;18.57;37.87
67803;BME280;72185;51.378;-1.342;2024-02-16T04:31:02;99577.14;;;18.42;37.86
67803;BME280;72185;51.378;-1.342;2024-02-16T04:33:28;99582.00;;;18.43;37.80
67803;BME280;72185;51.378;-1.342;2024-02-16T04:35:53;99585.09;;;18.51;37.71
67803;BME280;72185;51.378;-1.342;2024-02-16T04:38:19;99583.60;;;18.15;38.22
67803;BME280;72185;51.378;-1.342;2024-02-16T04:40:44;99581.01;;;18.29;38.00
67803;BME280;72185;51.378;-1.342;2024-02-16T04:43:10;99579.99;;;18.23;38.01
67803;BME280;72185;51.378;-1.342;2024-02-16T04:45:35;99586.28;;;18.22;38.09
67803;BME280;72185;51.378;-1.342;2024-02-16T04:48:03;99591.57;;;18.01;38.39
67803;BME280;72185;51.378;-1.342;2024-02-16T04:50:26;99594.80;;;18.22;37.96
67803;BME280;72185;51.378;-1.342;2024-02-16T04:52:52;99598.20;;;18.20;38.01
67803;BME280;72185;51.378;-1.342;2024-02-16T04:55:17;99608.87;;;17.96;38.40
67803;BME280;72185;51.378;-1.342;2024-02-16T04:57:43;99612.49;;;18.05;38.23
67803;BME280;72185;51.378;-1.342;2024-02-16T05:00:09;99612.84;;;18.06;38.23
67803;BME280;72185;51.378;-1.342;2024-02-16T05:02:34;99618.81;;;18.01;38.30
67803;BME280;72185;51.378;-1.342;2024-02-16T05:05:00;99621.61;;;18.01;38.28
67803;BME280;72185;51.378;-1.342;2024-02-16T05:07:25;99628.70;;;18.23;38.29
67803;BME280;72185;51.378;-1.342;2024-02-16T05:09:51;99632.58;;;17.86;38.41
67803;BME280;72185;51.378;-1.342;2024-02-16T05:12:16;99642.24;;;17.81;38.62
67803;BME280;72185;51.378;-1.342;2024-02-16T05:14:42;99646.59;;;17.84;38.45
67803;BME280;72185;51.378;-1.342;2024-02-16T05:17:07;99652.73;;;17.78;38.52
67803;BME280;72185;51.378;-1.342;2024-02-16T05:19:33;99657.00;;;17.70;38.62
67803;BME280;72185;51.378;-1.342;2024-02-16T05:21:58;99658.28;;;18.09;38.60
67803;BME280;72185;51.378;-1.342;2024-02-16T05:24:24;99661.28;;;17.66;38.67
67803;BME280;72185;51.378;-1.342;2024-02-16T05:26:49;99662.47;;;17.53;38.76
67803;BME280;72185;51.378;-1.342;2024-02-16T05:29:15;99668.58;;;17.84;38.37
67803;BME280;72185;51.378;-1.342;2024-02-16T05:31:40;99670.99;;;17.98;38.19
67803;BME280;72185;51.378;-1.342;2024-02-16T05:34:06;99674.95;;;18.58;37.48
67803;BME280;72185;51.378;-1.342;2024-02-16T05:36:32;99679.20;;;18.71;37.49
67803;BME280;72185;51.378;-1.342;2024-02-16T05:38:57;99684.22;;;18.91;37.50
67803;BME280;72185;51.378;-1.342;2024-02-16T05:41:23;99687.15;;;19.09;37.38
67803;BME280;72185;51.378;-1.342;2024-02-16T05:43:48;99696.59;;;19.04;37.54
67803;BME280;72185;51.378;-1.342;2024-02-16T05:46:14;99702.90;;;19.13;37.52
67803;BME280;72185;51.378;-1.342;2024-02-16T05:48:39;99711.44;;;19.27;37.35
67803;BME280;72185;51.378;-1.342;2024-02-16T05:51:05;99717.06;;;19.25;37.42
67803;BME280;72185;51.378;-1.342;2024-02-16T05:53:30;99720.24;;;19.32;37.41
67803;BME280;72185;51.378;-1.342;2024-02-16T05:55:56;99728.66;;;19.47;37.26
67803;BME280;72185;51.378;-1.342;2024-02-16T05:58:21;99731.50;;;19.44;37.34
67803;BME280;72185;51.378;-1.342;2024-02-16T06:00:47;99741.05;;;19.44;37.41
67803;BME280;72185;51.378;-1.342;2024-02-16T06:03:13;99744.13;;;19.46;37.45
67803;BME280;72185;51.378;-1.342;2024-02-16T06:05:38;99746.37;;;19.52;37.34
67803;BME280;72185;51.378;-1.342;2024-02-16T06:08:04;99744.67;;;19.42;37.47
67803;BME280;72185;51.378;-1.342;2024-02-16T06:10:29;99743.33;;;19.32;37.35
67803;BME280;72185;51.378;-1.342;2024-02-16T06:12:55;99746.06;;;19.29;37.35
67803;BME280;72185;51.378;-1.342;2024-02-16T06:15:20;99750.78;;;19.45;37.39
67803;BME280;72185;51.378;-1.342;2024-02-16T06:17:47;99753.87;;;19.27;37.32
67803;BME280;72185;51.378;-1.342;2024-02-16T06:20:11;99754.76;;;19.45;37.32
67803;BME280;72185;51.378;-1.342;2024-02-16T06:22:37;99755.63;;;19.42;37.37
67803;BME280;72185;51.378;-1.342;2024-02-16T06:25:02;99756.76;;;19.45;37.30
67803;BME280;72185;51.378;-1.342;2024-02-16T06:27:28;99757.58;;;19.26;37.23
67803;BME280;72185;51.378;-1.342;2024-02-16T06:29:53;99770.88;;;19.21;37.31
67803;BME280;72185;51.378;-1.342;2024-02-16T06:32:19;99770.12;;;19.27;37.26
67803;BME280;72185;51.378;-1.342;2024-02-16T06:34:45;99768.29;;;19.47;37.33
67803;BME280;72185;51.378;-1.342;2024-02-16T06:37:10;99769.02;;;19.59;37.21
67803;BME280;72185;51.378;-1.342;2024-02-16T06:39:35;99774.55;;;19.28;37.34
67803;BME280;72185;51.378;-1.342;2024-02-16T06:42:01;99779.81;;;19.39;37.20
67803;BME280;72185;51.378;-1.342;2024-02-16T06:44:26;99783.69;;;19.59;37.22
67803;BME280;72185;51.378;-1.342;2024-02-16T06:46:52;99791.01;;;19.29;37.31
67803;BME280;72185;51.378;-1.342;2024-02-16T06:49:17;99796.31;;;19.38;37.16
67803;BME280;72185;51.378;-1.342;2024-02-16T06:51:43;99798.33;;;19.53;37.21
67803;BME280;72185;51.378;-1.342;2024-02-16T06:54:08;99800.35;;;19.32;37.17
67803;BME280;72185;51.378;-1.342;2024-02-16T06:56:34;99808.00;;;19.21;37.28
67803;BME280;72185;51.378;-1.342;2024-02-16T06:58:59;99813.84;;;18.96;37.23
67803;BME280;72185;51.378;-1.342;2024-02-16T07:01:25;99815.17;;;19.42;37.23
67803;BME280;72185;51.378;-1.342;2024-02-16T07:03:51;99821.08;;;19.37;36.99
67803;BME280;72185;51.378;-1.342;2024-02-16T07:06:16;99831.83;;;19.02;37.08
67803;BME280;72185;51.378;-1.342;2024-02-16T07:08:42;99840.26;;;19.58;36.98
67803;BME280;72185;51.378;-1.342;2024-02-16T07:11:07;99840.41;;;19.34;37.02
67803;BME280;72185;51.378;-1.342;2024-02-16T07:13:33;99843.75;;;19.30;37.11
67803;BME280;72185;51.378;-1.342;2024-02-16T07:15:58;99849.30;;;19.54;37.09
67803;BME280;72185;51.378;-1.342;2024-02-16T07:18:24;99857.73;;;19.59;37.04
67803;BME280;72185;51.378;-1.342;2024-02-16T07:20:49;99859.22;;;19.57;37.05
67803;BME280;72185;51.378;-1.342;2024-02-16T07:23:15;99866.18;;;19.70;36.87
67803;BME280;72185;51.378;-1.342;2024-02-16T07:25:40;99874.51;;;19.32;37.04
67803;BME280;72185;51.378;-1.342;2024-02-16T07:28:06;99880.26;;;19.51;37.06
67803;BME280;72185;51.378;-1.342;2024-02-16T07:30:31;99888.52;;;19.55;36.99
67803;BME280;72185;51.378;-1.342;2024-02-16T07:32:57;99892.20;;;19.34;36.92
67803;BME280;72185;51.378;-1.342;2024-02-16T07:35:23;99905.07;;;19.54;36.93
67803;BME280;72185;51.378;-1.342;2024-02-16T07:37:48;99911.37;;;19.56;36.87
67803;BME280;72185;51.378;-1.342;2024-02-16T07:40:17;99917.73;;;19.49;36.95
67803;BME280;72185;51.378;-1.342;2024-02-16T07:42:39;99923.46;;;19.26;36.95
67803;BME280;72185;51.378;-1.342;2024-02-16T07:45:05;99931.32;;;19.32;36.89
67803;BME280;72185;51.378;-1.342;2024-02-16T07:47:31;99941.37;;;19.25;36.97
67803;BME280;72185;51.378;-1.342;2024-02-16T07:49:56;99941.88;;;19.16;37.03
67803;BME280;72185;51.378;-1.342;2024-02-16T07:52:21;99945.12;;;19.24;37.13
67803;BME280;72185;51.378;-1.342;2024-02-16T07:54:47;99950.07;;;19.20;36.86
67803;BME280;72185;51.378;-1.342;2024-02-16T07:57:12;99954.43;;;19.33;36.94
67803;BME280;72185;51.378;-1.342;2024-02-16T07:59:38;99961.29;;;19.24;36.98
67803;BME280;72185;51.378;-1.342;2024-02-16T08:02:04;99965.01;;;19.07;37.18
67803;BME280;72185;51.378;-1.342;2024-02-16T08:04:29;99966.61;;;19.19;36.99
67803;BME280;72185;51.378;-1.342;2024-02-16T08:06:54;99972.49;;;19.08;37.06
67803;BME280;72185;51.378;-1.342;2024-02-16T08:09:20;99980.39;;;18.87;37.02
67803;BME280;72185;51.378;-1.342;2024-02-16T08:11:45;99987.01;;;18.85;37.29
67803;BME280;72185;51.378;-1.342;2024-02-16T08:14:11;99988.78;;;18.92;37.14
67803;BME280;72185;51.378;-1.342;2024-02-16T08:16:37;99991.76;;;18.86;37.26
67803;BME280;72185;51.378;-1.342;2024-02-16T08:19:02;99997.71;;;19.19;36.78
67803;BME280;72185;51.378;-1.342;2024-02-16T08:21:28;100005.56;;;18.94;36.80
67803;BME280;72185;51.378;-1.342;2024-02-16T08:23:53;100014.62;;;19.21;36.69
67803;BME280;72185;51.378;-1.342;2024-02-16T08:26:19;100017.15;;;19.02;36.64
67803;BME280;72185;51.378;-1.342;2024-02-16T08:28:44;100022.67;;;19.33;36.50
67803;BME280;72185;51.378;-1.342;2024-02-16T08:31:10;100025.49;;;19.23;36.41
67803;BME280;72185;51.378;-1.342;2024-02-16T08:33:35;100029.76;;;19.23;36.45
67803;BME280;72185;51.378;-1.342;2024-02-16T08:36:01;100036.22;;;19.06;36.61
67803;BME280;72185;51.378;-1.342;2024-02-16T08:38:26;100039.45;;;19.47;36.39
67803;BME280;72185;51.378;-1.342;2024-02-16T08:40:52;100045.45;;;19.33;36.49
67803;BME280;72185;51.378;-1.342;2024-02-16T08:43:17;100045.90;;;19.27;36.59
67803;BME280;72185;51.378;-1.342;2024-02-16T08:45:43;100051.29;;;19.57;36.24
67803;BME280;72185;51.378;-1.342;2024-02-16T08:48:09;100055.53;;;19.09;36.50
67803;BME280;72185;51.378;-1.342;2024-02-16T08:50:34;100063.91;;;19.05;36.65
67803;BME280;72185;51.378;-1.342;2024-02-16T08:52:59;100061.33;;;19.34;36.57
67803;BME280;72185;51.378;-1.342;2024-02-16T08:55:25;100061.85;;;19.27;36.61
67803;BME280;72185;51.378;-1.342;2024-02-16T08:57:50;100065.64;;;19.32;36.65
67803;BME280;72185;51.378;-1.342;2024-02-16T09:00:16;100063.51;;;19.17;36.74
67803;BME280;72185;51.378;-1.342;2024-02-16T09:02:41;100069.22;;;19.37;36.65
67803;BME280;72185;51.378;-1.342;2024-02-16T09:05:07;100067.88;;;19.18;36.98
67803;BME280;72185;51.378;-1.342;2024-02-16T09:07:32;100073.09;;;19.25;36.94
67803;BME280;72185;51.378;-1.342;2024-02-16T09:09:58;100079.21;;;19.35;36.85
67803;BME280;72185;51.378;-1.342;2024-02-16T09:12:23;100082.96;;;19.17;37.03
67803;BME280;72185;51.378;-1.342;2024-02-16T09:14:49;100088.48;;;19.31;36.89
67803;BME280;72185;51.378;-1.342;2024-02-16T09:17:14;100094.77;;;19.22;36.83
67803;BME280;72185;51.378;-1.342;2024-02-16T09:19:40;100101.56;;;19.19;37.21
67803;BME280;72185;51.378;-1.342;2024-02-16T09:22:05;100106.39;;;19.02;37.15
67803;BME280;72185;51.378;-1.342;2024-02-16T09:24:31;100109.32;;;19.41;36.98
67803;BME280;72185;51.378;-1.342;2024-02-16T09:26:57;100114.71;;;19.65;36.68
67803;BME280;72185;51.378;-1.342;2024-02-16T09:29:22;100121.60;;;19.37;37.03
67803;BME280;72185;51.378;-1.342;2024-02-16T09:31:49;100121.51;;;19.42;37.02
67803;BME280;72185;51.378;-1.342;2024-02-16T09:34:13;100128.03;;;19.18;37.08
67803;BME280;72185;51.378;-1.342;2024-02-16T09:36:38;100131.02;;;19.49;36.94
67803;BME280;72185;51.378;-1.342;2024-02-16T09:39:04;100141.17;;;19.40;37.11
67803;BME280;72185;51.378;-1.342;2024-02-16T09:41:32;100146.28;;;19.30;37.23
67803;BME280;72185;51.378;-1.342;2024-02-16T09:43:55;100152.60;;;19.47;37.21
67803;BME280;72185;51.378;-1.342;2024-02-16T09:46:21;100158.24;;;19.43;37.37
67803;BME280;72185;51.378;-1.342;2024-02-16T09:48:48;100164.14;;;19.33;37.63
67803;BME280;72185;51.378;-1.342;2024-02-16T09:51:11;100169.49;;;19.20;37.83
67803;BME280;72185;51.378;-1.342;2024-02-16T09:53:37;100171.87;;;19.24;37.87
67803;BME280;72185;51.378;-1.342;2024-02-16T09:56:05;100177.58;;;19.34;37.77
67803;BME280;72185;51.378;-1.342;2024-02-16T09:58:28;100180.62;;;19.19;37.78
67803;BME280;72185;51.378;-1.342;2024-02-16T10:00:54;100183.78;;;19.15;38.17
67803;BME280;72185;51.378;-1.342;2024-02-16T10:03:24;100186.96;;;19.14;38.16
67803;BME280;72185;51.378;-1.342;2024-02-16T10:05:44;100195.18;;;19.22;37.93
67803;BME280;72185;51.378;-1.342;2024-02-16T10:08:11;100199.41;;;19.18;38.21
67803;BME280;72185;51.378;-1.342;2024-02-16T10:10:35;100204.64;;;19.31;38.11
67803;BME280;72185;51.378;-1.342;2024-02-16T10:13:01;100207.79;;;19.33;38.08
67803;BME280;72185;51.378;-1.342;2024-02-16T10:15:26;100214.72;;;19.26;37.94
67803;BME280;72185;51.378;-1.342;2024-02-16T10:17:58;100220.60;;;19.47;38.01
67803;BME280;72185;51.378;-1.342;2024-02-16T10:20:18;100222.55;;;19.46;38.10
67803;BME280;72185;51.378;-1.342;2024-02-16T10:22:42;100223.52;;;19.46;38.06
67803;BME280;72185;51.378;-1.342;2024-02-16T10:25:08;100226.20;;;19.39;38.06
67803;BME280;72185;51.378;-1.342;2024-02-16T10:27:34;100228.16;;;19.54;37.85
67803;BME280;72185;51.378;-1.342;2024-02-16T10:29:59;100233.62;;;19.38;37.97
67803;BME280;72185;51.378;-1.342;2024-02-16T10:32:25;100237.49;;;19.35;37.87
67803;BME280;72185;51.378;-1.342;2024-02-16T10:34:52;100242.32;;;19.25;37.78
67803;BME280;72185;51.378;-1.342;2024-02-16T10:37:16;100242.30;;;19.25;37.41
67803;BME280;72185;51.378;-1.342;2024-02-16T10:39:41;100247.01;;;19.15;37.72
67803;BME280;72185;51.378;-1.342;2024-02-16T10:42:07;100249.59;;;18.81;37.72
67803;BME280;72185;51.378;-1.342;2024-02-16T10:44:32;100247.38;;;19.07;37.63
67803;BME280;72185;51.378;-1.342;2024-02-16T10:46:58;100255.30;;;19.09;37.55
67803;BME280;72185;51.378;-1.342;2024-02-16T10:49:24;100257.74;;;18.98;37.56
67803;BME280;72185;51.378;-1.342;2024-02-16T10:51:52;100258.23;;;19.09;37.36
67803;BME280;72185;51.378;-1.342;2024-02-16T10:54:18;100265.84;;;18.72;37.49
67803;BME280;72185;51.378;-1.342;2024-02-16T10:56:40;100266.79;;;18.36;38.14
67803;BME280;72185;51.378;-1.342;2024-02-16T10:59:07;100273.18;;;18.71;37.73
67803;BME280;72185;51.378;-1.342;2024-02-16T11:01:37;100279.07;;;18.06;38.25
67803;BME280;72185;51.378;-1.342;2024-02-16T11:04:01;100283.84;;;18.19;38.17
67803;BME280;72185;51.378;-1.342;2024-02-16T11:06:22;100281.47;;;17.74;38.40
67803;BME280;72185;51.378;-1.342;2024-02-16T11:08:49;100289.78;;;17.96;38.32
67803;BME280;72185;51.378;-1.342;2024-02-16T11:11:22;100289.30;;;18.17;38.15
67803;BME280;72185;51.378;-1.342;2024-02-16T11:13:38;100293.97;;;18.62;37.40
67803;BME280;72185;51.378;-1.342;2024-02-16T11:16:07;100296.74;;;18.50;37.55
67803;BME280;72185;51.378;-1.342;2024-02-16T11:18:30;100300.44;;;18.18;37.94
67803;BME280;72185;51.378;-1.342;2024-02-16T11:20:55;100300.53;;;18.26;37.73
67803;BME280;72185;51.378;-1.342;2024-02-16T11:23:27;100304.27;;;18.60;37.34
67803;BME280;72185;51.378;-1.342;2024-02-16T11:25:50;100302.85;;;18.37;37.68
67803;BME280;72185;51.378;-1.342;2024-02-16T11:28:12;100307.30;;;18.32;37.72
67803;BME280;72185;51.378;-1.342;2024-02-16T11:30:37;100306.07;;;18.69;37.50
67803;BME280;72185;51.378;-1.342;2024-02-16T11:33:03;100307.97;;;18.89;37.29
67803;BME280;72185;51.378;-1.342;2024-02-16T11:35:28;100306.50;;;19.07;37.05
67803;BME280;72185;51.378;-1.342;2024-02-16T11:37:55;100311.59;;;18.95;36.89
67803;BME280;72185;51.378;-1.342;2024-02-16T11:40:19;100311.84;;;19.22;36.73
67803;BME280;72185;51.378;-1.342;2024-02-16T11:42:44;100309.06;;;19.26;36.64
67803;BME280;72185;51.378;-1.342;2024-02-16T11:45:10;100307.50;;;19.17;36.59
67803;BME280;72185;51.378;-1.342;2024-02-16T11:47:35;100310.05;;;19.00;36.83
67803;BME280;72185;51.378;-1.342;2024-02-16T11:50:02;100307.35;;;19.04;36.88
67803;BME280;72185;51.378;-1.342;2024-02-16T11:52:26;100309.12;;;19.17;36.60
67803;BME280;72185;51.378;-1.342;2024-02-16T11:54:52;100307.28;;;19.18;36.54
67803;BME280;72185;51.378;-1.342;2024-02-16T11:57:17;100317.57;;;19.10;36.66
67803;BME280;72185;51.378;-1.342;2024-02-16T11:59:43;100315.22;;;19.23;36.45
67803;BME280;72185;51.378;-1.342;2024-02-16T12:02:17;100326.31;;;19.17;36.50
67803;BME280;72185;51.378;-1.342;2024-02-16T12:04:34;100327.47;;;19.00;36.65
67803;BME280;72185;51.378;-1.342;2024-02-16T12:07:00;100331.43;;;18.97;36.66
67803;BME280;72185;51.378;-1.342;2024-02-16T12:09:25;100334.50;;;19.10;36.54
67803;BME280;72185;51.378;-1.342;2024-02-16T12:11:52;100335.86;;;19.10;36.48
67803;BME280;72185;51.378;-1.342;2024-02-16T12:14:16;100339.21;;;19.00;36.61
67803;BME280;72185;51.378;-1.342;2024-02-16T12:16:42;100337.44;;;19.06;36.53
67803;BME280;72185;51.378;-1.342;2024-02-16T12:19:07;100335.37;;;19.02;36.54
67803;BME280;72185;51.378;-1.342;2024-02-16T12:21:33;100333.24;;;18.88;36.72
67803;BME280;72185;51.378;-1.342;2024-02-16T12:23:58;100330.14;;;18.78;36.82
67803;BME280;72185;51.378;-1.342;2024-02-16T12:26:24;100326.30;;;18.81;36.79
67803;BME280;72185;51.378;-1.342;2024-02-16T12:28:49;100323.76;;;18.89;36.67
67803;BME280;72185;51.378;-1.342;2024-02-16T12:31:19;100325.47;;;18.77;36.78
67803;BME280;72185;51.378;-1.342;2024-02-16T12:33:40;100329.01;;;18.86;36.68
67803;BME280;72185;51.378;-1.342;2024-02-16T12:36:06;100328.16;;;18.90;36.61